createdAt,value
2022-11-28T00:01:35.702Z,99926.06
2022-11-28T00:04:04.148Z,99925.69
2022-11-28T00:06:33.924Z,99925.69
2022-11-28T00:09:02.356Z,99925.69
2022-11-28T00:11:30.418Z,99921.66
2022-11-28T00:13:58.447Z,99920.25
2022-11-28T00:16:26.718Z,99917.25
2022-11-28T00:18:55.891Z,99920.63
2022-11-28T00:21:24.985Z,99926.38
2022-11-28T00:23:54.637Z,99930.09
2022-11-28T00:26:25.728Z,99931.03
2022-11-28T00:28:54.324Z,99930.22
2022-11-28T00:31:24.662Z,99927.56
2022-11-28T00:33:53.341Z,99929.41
2022-11-28T00:36:22.412Z,99935.75
2022-11-28T00:38:51.287Z,99938.66
2022-11-28T00:41:22.843Z,99935.63
2022-11-28T00:43:52.226Z,99935.28
2022-11-28T00:46:22.970Z,99930.22
2022-11-28T00:48:51.349Z,99923.03
2022-11-28T00:51:21.996Z,99925.44
2022-11-28T00:53:52.259Z,99919.56
2022-11-28T00:56:24.236Z,99922.69
2022-11-28T00:58:52.567Z,99912.06
2022-11-28T01:01:24.095Z,99920.03
2022-11-28T01:03:54.330Z,99915.53
2022-11-28T01:06:24.128Z,99910.75
2022-11-28T01:08:52.753Z,99911.59
2022-11-28T01:11:23.075Z,99906.28
2022-11-28T01:13:51.477Z,99913.00
2022-11-28T01:16:19.538Z,99913.09
2022-11-28T01:18:47.583Z,99910.56
2022-11-28T01:21:15.824Z,99904.53
2022-11-28T01:23:44.433Z,99892.63
2022-11-28T01:26:16.392Z,99903.97
2022-11-28T01:28:45.992Z,99902.47
2022-11-28T01:31:17.129Z,99901.19
2022-11-28T01:33:45.335Z,99899.56
2022-11-28T01:36:15.123Z,99900.84
2022-11-28T01:38:43.469Z,99902.94
2022-11-28T01:41:12.635Z,99905.00
2022-11-28T01:44:00.401Z,99892.41
2022-11-28T01:46:29.402Z,99891.81
2022-11-28T01:49:00.377Z,99895.75
2022-11-28T01:51:29.125Z,99892.97
2022-11-28T01:53:57.545Z,99895.53
2022-11-28T01:56:28.708Z,99890.66
2022-11-28T01:59:03.791Z,99895.41
2022-11-28T02:01:32.180Z,99897.25
2022-11-28T02:04:00.423Z,99891.94
2022-11-28T02:06:29.489Z,99895.97
2022-11-28T02:08:57.773Z,99897.38
2022-11-28T02:11:55.040Z,99897.84
2022-11-28T02:14:41.855Z,99895.97
2022-11-28T02:17:18.250Z,99891.72
2022-11-28T02:20:22.736Z,99898.06
2022-11-28T02:22:59.495Z,99894.38
2022-11-28T02:26:06.842Z,99894.81
2022-11-28T02:29:02.438Z,99897.25
2022-11-28T02:31:53.458Z,99902.09
2022-11-28T02:34:29.910Z,99900.84
2022-11-28T02:37:04.635Z,99901.63
2022-11-28T02:39:41.836Z,99894.72
2022-11-28T02:42:16.720Z,99902.91
2022-11-28T02:44:48.893Z,99887.53
2022-11-28T02:47:25.110Z,99896.56
2022-11-28T02:50:00.133Z,99899.22
2022-11-28T02:52:34.546Z,99895.53
2022-11-28T02:55:03.624Z,99896.91
2022-11-28T02:57:37.682Z,99900.84
2022-11-28T03:00:26.107Z,99895.41
2022-11-28T03:03:09.519Z,99903.97
2022-11-28T03:05:44.831Z,99916.44
2022-11-28T03:08:28.028Z,99908.47
2022-11-28T03:11:01.998Z,99911.13
2022-11-28T03:13:39.977Z,99917.47
2022-11-28T03:16:19.091Z,99910.66
2022-11-28T03:18:59.823Z,99911.25
2022-11-28T03:21:37.847Z,99911.25
2022-11-28T03:24:11.561Z,99912.75
2022-11-28T03:26:48.717Z,99908.59
2022-11-28T03:29:22.068Z,99913.78
2022-11-28T03:31:54.280Z,99915.78
2022-11-28T03:34:28.622Z,99914.72
2022-11-28T03:37:02.925Z,99909.75
2022-11-28T03:39:34.863Z,99905.47
2022-11-28T03:42:08.954Z,99910.19
2022-11-28T03:44:41.225Z,99910.66
2022-11-28T03:47:10.564Z,99907.22
2022-11-28T03:49:43.423Z,99904.28
2022-11-28T03:52:16.176Z,99905.47
2022-11-28T03:54:52.031Z,99905.59
2022-11-28T03:57:26.093Z,99908.69
2022-11-28T03:59:55.431Z,99904.03
2022-11-28T04:02:31.222Z,99907.06
2022-11-28T04:05:04.773Z,99909.28
2022-11-28T04:07:39.880Z,99901.84
2022-11-28T04:10:15.926Z,99905.66
2022-11-28T04:12:54.452Z,99903.34
2022-11-28T04:15:30.782Z,99905.31
2022-11-28T04:18:05.161Z,99902.75
2022-11-28T04:20:41.311Z,99893.00
2022-11-28T04:23:14.428Z,99899.25
2022-11-28T04:25:48.050Z,99897.13
2022-11-28T04:28:22.390Z,99902.56
2022-11-28T04:30:53.663Z,99898.63
2022-11-28T04:33:24.532Z,99897.81
2022-11-28T04:35:56.714Z,99896.19
2022-11-28T04:38:28.144Z,99902.34
2022-11-28T04:41:01.711Z,99897.81
2022-11-28T04:43:35.150Z,99908.47
2022-11-28T04:46:08.574Z,99905.34
2022-11-28T04:48:36.838Z,99908.22
2022-11-28T04:51:15.134Z,99912.16
2022-11-28T04:53:49.602Z,99905.22
2022-11-28T04:56:22.866Z,99900.16
2022-11-28T04:58:52.410Z,99900.97
2022-11-28T05:01:25.481Z,99905.22
2022-11-28T05:03:54.200Z,99900.72
2022-11-28T05:06:32.828Z,99892.97
2022-11-28T05:09:01.374Z,99897.81
2022-11-28T05:11:29.963Z,99899.44
2022-11-28T05:13:58.015Z,99905.91
2022-11-28T05:16:26.141Z,99905.09
2022-11-28T05:18:54.236Z,99899.75
2022-11-28T05:21:22.536Z,99904.06
2022-11-28T05:23:51.972Z,99913.44
2022-11-28T05:26:21.756Z,99909.94
2022-11-28T05:28:52.090Z,99900.34
2022-11-28T05:31:22.235Z,99903.81
2022-11-28T05:33:50.396Z,99905.91
2022-11-28T05:36:19.357Z,99906.75
2022-11-28T05:38:47.568Z,99907.69
2022-11-28T05:41:23.156Z,99909.22
2022-11-28T05:43:51.476Z,99917.09
2022-11-28T05:46:20.351Z,99914.31
2022-11-28T05:48:48.483Z,99914.34
2022-11-28T05:51:16.523Z,99911.13
2022-11-28T05:53:44.886Z,99904.53
2022-11-28T05:56:15.423Z,99906.59
2022-11-28T05:58:45.246Z,99909.38
2022-11-28T06:01:15.309Z,99900.94
2022-11-28T06:03:43.731Z,99900.00
2022-11-28T06:06:14.428Z,99913.22
2022-11-28T06:08:42.680Z,99911.13
2022-11-28T06:11:11.033Z,99907.53
2022-11-28T06:13:39.486Z,99909.59
2022-11-28T06:16:11.278Z,99905.53
2022-11-28T06:18:40.073Z,99904.69
2022-11-28T06:21:09.354Z,99913.13
2022-11-28T06:23:38.283Z,99910.66
2022-11-28T06:26:07.554Z,99904.16
2022-11-28T06:28:36.511Z,99910.94
2022-11-28T06:31:05.013Z,99910.00
2022-11-28T06:33:34.449Z,99903.75
2022-11-28T06:36:03.442Z,99902.28
2022-11-28T06:38:32.179Z,99908.28
2022-11-28T06:41:03.314Z,99905.69
2022-11-28T06:43:31.956Z,99902.31
2022-11-28T06:46:00.220Z,99897.81
2022-11-28T06:48:28.904Z,99902.56
2022-11-28T06:51:03.417Z,99910.56
2022-11-28T06:53:31.843Z,99906.44
2022-11-28T06:55:59.980Z,99912.28
2022-11-28T06:58:28.109Z,99899.81
2022-11-28T07:00:56.756Z,99898.22
2022-11-28T07:03:24.893Z,99900.28
2022-11-28T07:05:52.977Z,99905.13
2022-11-28T07:08:22.503Z,99909.44
2022-11-28T07:10:50.626Z,99910.81
2022-11-28T07:13:18.619Z,99907.91
2022-11-28T07:15:50.026Z,99902.84
2022-11-28T07:18:18.325Z,99910.25
2022-11-28T07:20:46.328Z,99909.19
2022-11-28T07:23:14.393Z,99910.81
2022-11-28T07:25:43.843Z,99903.16
2022-11-28T07:28:11.905Z,99907.78
2022-11-28T07:30:39.965Z,99905.19
2022-11-28T07:33:07.994Z,99908.28
2022-11-28T07:35:36.016Z,99904.66
2022-11-28T07:38:04.352Z,99903.94
2022-11-28T07:40:32.386Z,99898.69
2022-11-28T07:43:01.800Z,99901.53
2022-11-28T07:45:47.512Z,99896.13
2022-11-28T07:48:17.936Z,99900.00
2022-11-28T07:50:45.975Z,99897.72
2022-11-28T07:53:14.121Z,99897.63
2022-11-28T07:55:42.240Z,99892.19
2022-11-28T07:58:11.670Z,99888.88
2022-11-28T08:00:39.700Z,99888.03
2022-11-28T08:03:07.773Z,99892.50
2022-11-28T08:05:35.831Z,99895.63
2022-11-28T08:08:03.982Z,99886.94
2022-11-28T08:10:32.031Z,99879.22
2022-11-28T08:13:00.006Z,99878.41
2022-11-28T08:15:31.789Z,99885.13
2022-11-28T08:17:59.930Z,99872.94
2022-11-28T08:20:28.043Z,99883.19
2022-11-28T08:22:56.151Z,99872.84
2022-11-28T08:25:24.204Z,99866.25
2022-11-28T08:27:52.252Z,99869.72
2022-11-28T08:30:20.474Z,99873.91
2022-11-28T08:32:50.019Z,99864.19
2022-11-28T08:35:18.156Z,99866.34
2022-11-28T08:37:46.313Z,99866.38
2022-11-28T08:40:15.353Z,99869.59
2022-11-28T08:42:43.557Z,99863.16
2022-11-28T08:45:12.984Z,99856.50
2022-11-28T08:47:41.122Z,99854.25
2022-11-28T08:50:11.241Z,99848.97
2022-11-28T08:52:39.266Z,99848.00
2022-11-28T08:55:07.914Z,99841.03
2022-11-28T08:57:35.896Z,99842.94
2022-11-28T09:00:06.389Z,99833.41
2022-11-28T09:02:34.350Z,99824.53
2022-11-28T09:05:02.378Z,99826.38
2022-11-28T09:07:32.000Z,99822.66
2022-11-28T09:10:00.094Z,99821.03
2022-11-28T09:12:28.203Z,99817.63
2022-11-28T09:14:56.260Z,99813.47
2022-11-28T09:17:24.242Z,99805.75
2022-11-28T09:19:52.270Z,99805.00
2022-11-28T09:22:20.368Z,99797.00
2022-11-28T09:24:49.833Z,99799.47
2022-11-28T09:27:17.869Z,99793.13
2022-11-28T09:29:45.893Z,99794.00
2022-11-28T09:32:13.991Z,99789.75
2022-11-28T09:34:42.170Z,99783.38
2022-11-28T09:37:10.918Z,99774.84
2022-11-28T09:39:50.644Z,99778.59
2022-11-28T09:42:33.250Z,99775.28
2022-11-28T09:45:04.536Z,99764.25
2022-11-28T09:47:36.923Z,99769.91
2022-11-28T09:50:10.863Z,99771.03
2022-11-28T09:52:46.606Z,99764.63
2022-11-28T09:55:19.941Z,99757.69
2022-11-28T09:57:52.120Z,99760.13
2022-11-28T10:00:22.892Z,99763.88
2022-11-28T10:03:08.333Z,99749.38
2022-11-28T10:05:42.264Z,99755.28
2022-11-28T10:08:27.901Z,99755.31
2022-11-28T10:11:03.543Z,99750.19
2022-11-28T10:14:06.724Z,99752.88
2022-11-28T10:16:41.904Z,99746.44
2022-11-28T10:19:25.781Z,99744.31
2022-11-28T10:22:06.394Z,99736.53
2022-11-28T10:24:38.642Z,99741.09
2022-11-28T10:27:07.429Z,99741.06
2022-11-28T10:29:45.243Z,99748.53
2022-11-28T10:32:17.708Z,99735.66
2022-11-28T10:34:51.217Z,99735.38
2022-11-28T10:37:25.336Z,99729.69
2022-11-28T10:39:53.887Z,99733.38
2022-11-28T10:42:29.116Z,99723.94
2022-11-28T10:45:15.378Z,99723.63
2022-11-28T10:48:07.386Z,99714.19
2022-11-28T10:50:48.296Z,99716.03
2022-11-28T10:53:25.229Z,99714.34
2022-11-28T10:56:09.921Z,99713.28
2022-11-28T10:58:47.100Z,99706.25
2022-11-28T11:01:17.077Z,99711.13
2022-11-28T11:03:45.282Z,99702.03
2022-11-28T11:06:13.303Z,99703.69
2022-11-28T11:08:42.380Z,99703.16
2022-11-28T11:11:23.767Z,99702.41
2022-11-28T11:14:00.861Z,99694.66
2022-11-28T11:16:49.237Z,99692.50
2022-11-28T11:19:28.378Z,99692.47
2022-11-28T11:22:05.944Z,99694.56
2022-11-28T11:24:34.096Z,99694.81
2022-11-28T11:27:08.386Z,99689.19
2022-11-28T11:29:38.711Z,99695.09
2022-11-28T11:32:21.861Z,99687.31
2022-11-28T11:34:50.380Z,99683.78
2022-11-28T11:37:22.017Z,99681.06
2022-11-28T11:39:51.999Z,99683.72
2022-11-28T11:42:24.170Z,99688.81
2022-11-28T11:44:52.413Z,99675.63
2022-11-28T11:47:40.760Z,99685.28
2022-11-28T11:50:18.555Z,99680.41
2022-11-28T11:53:01.936Z,99684.41
2022-11-28T11:55:32.054Z,99681.97
2022-11-28T11:58:05.936Z,99679.00
2022-11-28T12:00:39.074Z,99669.81
2022-11-28T12:03:21.035Z,99675.91
2022-11-28T12:08:49.691Z,99669.31
2022-11-28T12:11:19.611Z,99667.91
2022-11-28T12:13:48.079Z,99667.84
2022-11-28T12:16:38.013Z,99668.31
2022-11-28T12:19:25.318Z,99670.03
2022-11-28T12:22:07.909Z,99668.22
2022-11-28T12:24:47.874Z,99672.34
2022-11-28T12:27:28.542Z,99667.28
2022-11-28T12:30:11.020Z,99660.91
2022-11-28T12:32:48.414Z,99666.97
2022-11-28T12:35:28.828Z,99675.28
2022-11-28T12:38:13.524Z,99656.88
2022-11-28T12:40:53.481Z,99659.28
2022-11-28T12:43:37.789Z,99674.81
2022-11-28T12:46:16.409Z,99669.34
2022-11-28T12:48:58.635Z,99669.66
2022-11-28T12:51:38.284Z,99681.25
2022-11-28T12:54:25.966Z,99685.50
2022-11-28T12:57:00.096Z,99685.47
2022-11-28T12:59:36.290Z,99678.22
2022-11-28T13:02:25.356Z,99683.69
2022-11-28T13:05:26.174Z,99682.38
2022-11-28T13:08:17.002Z,99688.16
2022-11-28T13:10:52.476Z,99680.59
2022-11-28T13:13:25.271Z,99685.03
2022-11-28T13:16:04.688Z,99679.56
2022-11-28T13:18:41.647Z,99692.59
2022-11-28T13:21:28.423Z,99693.19
2022-11-28T13:24:07.075Z,99681.97
2022-11-28T13:26:44.594Z,99679.69
2022-11-28T13:29:27.230Z,99687.72
2022-11-28T13:32:02.644Z,99685.50
2022-11-28T13:34:31.410Z,99685.91
2022-11-28T13:40:01.292Z,99682.22
2022-11-28T13:43:02.485Z,99667.75
2022-11-28T13:45:31.964Z,99677.63
2022-11-28T13:48:01.043Z,99670.22
2022-11-28T13:50:59.747Z,99677.91
2022-11-28T13:53:28.023Z,99673.50
2022-11-28T13:56:24.828Z,99672.41
2022-11-28T13:58:57.029Z,99664.25
2022-11-28T14:01:27.334Z,99661.84
2022-11-28T14:04:08.811Z,99666.06
2022-11-28T14:06:45.603Z,99655.91
2022-11-28T14:09:30.862Z,99664.28
2022-11-28T14:12:04.667Z,99660.06
2022-11-28T14:14:53.775Z,99661.25
2022-11-28T14:17:39.024Z,99655.50
2022-11-28T14:20:20.573Z,99652.19
2022-11-28T14:23:03.202Z,99652.50
2022-11-28T14:25:33.919Z,99656.78
2022-11-28T14:28:07.073Z,99662.44
2022-11-28T14:30:38.339Z,99655.22
2022-11-28T14:33:16.141Z,99648.97
2022-11-28T14:36:06.816Z,99650.22
2022-11-28T14:38:46.004Z,99649.16
2022-11-28T14:41:15.423Z,99650.19
2022-11-28T14:43:46.596Z,99650.91
2022-11-28T14:46:25.282Z,99651.84
2022-11-28T14:49:18.207Z,99643.63
2022-11-28T14:55:22.346Z,99656.94
2022-11-28T14:57:58.195Z,99654.59
2022-11-28T15:00:29.777Z,99663.75
2022-11-28T15:03:20.801Z,99654.38
2022-11-28T15:05:52.027Z,99656.56
2022-11-28T15:08:55.241Z,99647.19
2022-11-28T15:11:48.148Z,99647.72
2022-11-28T15:14:22.278Z,99651.50
2022-11-28T15:16:56.269Z,99650.97
2022-11-28T15:19:28.417Z,99640.78
2022-11-28T15:21:57.103Z,99640.78
2022-11-28T15:24:28.001Z,99645.88
2022-11-28T15:26:58.340Z,99637.03
2022-11-28T15:29:28.620Z,99645.09
2022-11-28T15:31:59.784Z,99636.50
2022-11-28T15:34:31.258Z,99641.31
2022-11-28T15:37:01.544Z,99639.72
2022-11-28T15:39:35.940Z,99636.50
2022-11-28T15:42:06.346Z,99643.50
2022-11-28T15:44:34.987Z,99645.09
2022-11-28T15:47:05.095Z,99640.00
2022-11-28T15:49:35.944Z,99644.56
2022-11-28T15:52:06.188Z,99645.91
2022-11-28T15:54:41.293Z,99636.53
2022-11-28T15:57:20.408Z,99640.78
2022-11-28T15:59:48.577Z,99629.00
2022-11-28T16:02:23.691Z,99631.69
2022-11-28T16:04:56.242Z,99629.00
2022-11-28T16:07:24.362Z,99637.03
2022-11-28T16:09:58.133Z,99626.84
2022-11-28T16:12:27.574Z,99634.06
2022-11-28T16:15:01.480Z,99639.41
2022-11-28T16:17:33.466Z,99630.00
2022-11-28T16:20:03.781Z,99633.19
2022-11-28T16:22:37.148Z,99625.44
2022-11-28T16:25:22.215Z,99626.50
2022-11-28T16:27:53.302Z,99633.97
2022-11-28T16:30:36.996Z,99634.75
2022-11-28T16:33:38.575Z,99629.69
2022-11-28T16:36:11.707Z,99633.94
2022-11-28T16:38:40.309Z,99639.31
2022-11-28T16:41:16.912Z,99637.16
2022-11-28T16:43:50.455Z,99640.34
2022-11-28T16:46:22.911Z,99641.94
2022-11-28T16:49:00.216Z,99641.09
2022-11-28T16:51:32.754Z,99636.28
2022-11-28T16:54:01.584Z,99636.28
2022-11-28T16:56:44.930Z,99638.13
2022-11-28T16:59:15.063Z,99640.25
2022-11-28T17:01:45.042Z,99634.31
2022-11-28T17:04:22.644Z,99636.72
2022-11-28T17:06:51.187Z,99634.56
2022-11-28T17:09:19.548Z,99635.63
2022-11-28T17:11:52.058Z,99636.16
2022-11-28T17:14:20.202Z,99635.31
2022-11-28T17:16:48.224Z,99640.13
2022-11-28T17:19:16.290Z,99647.53
2022-11-28T17:21:48.051Z,99639.72
2022-11-28T17:24:19.470Z,99640.47
2022-11-28T17:26:47.924Z,99649.75
2022-11-28T17:29:16.958Z,99644.94
2022-11-28T17:31:47.038Z,99651.88
2022-11-28T17:34:17.912Z,99646.84
2022-11-28T17:36:47.739Z,99642.84
2022-11-28T17:39:17.002Z,99647.69
2022-11-28T17:41:46.861Z,99644.50
2022-11-28T17:44:18.725Z,99648.53
2022-11-28T17:46:47.230Z,99641.03
2022-11-28T17:49:15.562Z,99640.00
2022-11-28T17:51:44.291Z,99637.31
2022-11-28T17:54:19.245Z,99635.44
2022-11-28T17:56:47.623Z,99633.59
2022-11-28T17:59:17.280Z,99641.59
2022-11-28T18:01:45.816Z,99631.66
2022-11-28T18:04:14.143Z,99633.00
2022-11-28T18:06:44.093Z,99630.81
2022-11-28T18:09:14.508Z,99630.78
2022-11-28T18:11:43.064Z,99629.94
2022-11-28T18:14:11.344Z,99633.63
2022-11-28T18:16:43.727Z,99630.63
2022-11-28T18:19:12.164Z,99631.59
2022-11-28T18:21:40.357Z,99636.84
2022-11-28T18:24:09.039Z,99630.03
2022-11-28T18:26:38.532Z,99636.84
2022-11-28T18:29:07.201Z,99634.81
2022-11-28T18:31:35.877Z,99636.53
2022-11-28T18:34:06.141Z,99638.78
2022-11-28T18:36:35.338Z,99638.41
2022-11-28T18:39:06.989Z,99636.19
2022-11-28T18:41:35.190Z,99632.31
2022-11-28T18:44:06.260Z,99632.19
2022-11-28T18:46:35.300Z,99636.88
2022-11-28T18:49:03.578Z,99629.06
2022-11-28T18:51:33.240Z,99640.94
2022-11-28T18:54:04.290Z,99638.69
2022-11-28T18:56:32.485Z,99638.88
2022-11-28T18:59:00.725Z,99634.28
2022-11-28T19:01:32.481Z,99640.34
2022-11-28T19:04:01.923Z,99628.81
2022-11-28T19:06:30.953Z,99634.06
2022-11-28T19:09:01.854Z,99634.44
2022-11-28T19:11:30.611Z,99635.44
2022-11-28T19:13:59.228Z,99641.72
2022-11-28T19:16:30.166Z,99646.16
2022-11-28T19:18:59.055Z,99640.47
2022-11-28T19:21:28.732Z,99642.03
2022-11-28T19:23:58.058Z,99642.72
2022-11-28T19:26:27.980Z,99649.59
2022-11-28T19:28:56.741Z,99644.75
2022-11-28T19:31:27.286Z,99644.66
2022-11-28T19:34:01.284Z,99645.38
2022-11-28T19:36:30.683Z,99645.53
2022-11-28T19:38:59.176Z,99648.66
2022-11-28T19:41:28.126Z,99643.81
2022-11-28T19:43:56.256Z,99641.06
2022-11-28T19:46:24.407Z,99640.75
2022-11-28T19:48:52.749Z,99646.53
2022-11-28T19:51:22.145Z,99641.13
2022-11-28T19:53:50.250Z,99647.50
2022-11-28T19:56:20.271Z,99640.78
2022-11-28T19:58:48.671Z,99635.69
2022-11-28T20:01:18.557Z,99636.97
2022-11-28T20:03:48.765Z,99638.25
2022-11-28T20:06:19.257Z,99643.25
2022-11-28T20:08:49.772Z,99636.53
2022-11-28T20:11:19.446Z,99640.25
2022-11-28T20:13:48.615Z,99638.88
2022-11-28T20:16:18.636Z,99637.50
2022-11-28T20:18:47.075Z,99634.50
2022-11-28T20:21:17.558Z,99636.81
2022-11-28T20:23:47.156Z,99635.66
2022-11-28T20:26:17.567Z,99634.28
2022-11-28T20:28:45.725Z,99645.72
2022-11-28T20:31:20.114Z,99639.03
2022-11-28T20:33:48.231Z,99644.59
2022-11-28T20:36:18.015Z,99646.19
2022-11-28T20:38:46.241Z,99649.09
2022-11-28T20:41:17.442Z,99649.09
2022-11-28T20:43:45.980Z,99663.41
2022-11-28T20:46:16.750Z,99658.56
2022-11-28T20:48:45.376Z,99661.69
2022-11-28T20:51:15.495Z,99657.66
2022-11-28T20:53:43.833Z,99655.25
2022-11-28T20:56:14.793Z,99655.72
2022-11-28T20:58:44.867Z,99649.81
2022-11-28T21:01:15.907Z,99652.69
2022-11-28T21:03:44.342Z,99645.78
2022-11-28T21:06:12.521Z,99647.03
2022-11-28T21:08:41.050Z,99651.56
2022-11-28T21:11:10.603Z,99651.56
2022-11-28T21:13:39.199Z,99656.41
2022-11-28T21:16:10.543Z,99654.31
2022-11-28T21:18:40.074Z,99654.88
2022-11-28T21:21:09.761Z,99653.88
2022-11-28T21:23:38.229Z,99646.69
2022-11-28T21:26:08.652Z,99647.75
2022-11-28T21:28:37.594Z,99650.63
2022-11-28T21:31:09.620Z,99647.16
2022-11-28T21:33:37.782Z,99652.69
2022-11-28T21:36:08.027Z,99653.75
2022-11-28T21:38:36.837Z,99648.31
2022-11-28T21:41:05.063Z,99647.72
2022-11-28T21:43:33.056Z,99646.38
2022-11-28T21:46:04.519Z,99645.78
2022-11-28T21:48:37.092Z,99643.81
2022-11-28T21:51:06.016Z,99646.13
2022-11-28T21:53:34.593Z,99642.09
2022-11-28T21:56:04.470Z,99646.59
2022-11-28T21:58:32.974Z,99646.81
2022-11-28T22:01:02.680Z,99637.72
2022-11-28T22:03:32.537Z,99657.38
2022-11-28T22:06:05.141Z,99650.88
2022-11-28T22:08:33.647Z,99645.81
2022-11-28T22:11:04.928Z,99651.34
2022-11-28T22:13:33.398Z,99650.75
2022-11-28T22:16:01.585Z,99652.84
2022-11-28T22:18:30.290Z,99648.22
2022-11-28T22:21:06.503Z,99651.34
2022-11-28T22:23:39.030Z,99650.53
2022-11-28T22:26:08.608Z,99646.25
2022-11-28T22:28:38.206Z,99652.34
2022-11-28T22:31:09.938Z,99649.16
2022-11-28T22:33:38.319Z,99651.00
2022-11-28T22:36:10.890Z,99642.66
2022-11-28T22:38:39.702Z,99651.09
2022-11-28T22:41:09.281Z,99640.72
2022-11-28T22:43:37.751Z,99646.50
2022-11-28T22:46:06.206Z,99644.72
2022-11-28T22:48:35.247Z,99638.06
2022-11-28T22:51:09.976Z,99636.19
2022-11-28T22:53:38.004Z,99638.41
2022-11-28T22:56:06.594Z,99637.00
2022-11-28T22:58:40.980Z,99634.81
2022-11-28T23:01:12.781Z,99634.00
2022-11-28T23:03:41.026Z,99627.06
2022-11-28T23:06:13.735Z,99622.81
2022-11-28T23:08:44.106Z,99623.41
2022-11-28T23:11:14.649Z,99627.06
2022-11-28T23:13:43.345Z,99624.66
2022-11-28T23:16:13.070Z,99622.00
2022-11-28T23:18:41.291Z,99618.75
2022-11-28T23:21:11.306Z,99622.91
2022-11-28T23:23:39.813Z,99621.53
2022-11-28T23:26:10.607Z,99611.94
2022-11-28T23:28:39.388Z,99609.28
2022-11-28T23:31:09.000Z,99618.28
2022-11-28T23:33:37.763Z,99618.28
2022-11-28T23:36:15.180Z,99615.63
2022-11-28T23:38:44.009Z,99629.69
2022-11-28T23:41:12.848Z,99633.41
2022-11-28T23:43:41.307Z,99630.16
2022-11-28T23:46:11.333Z,99620.00
2022-11-28T23:48:39.505Z,99627.38
2022-11-28T23:51:08.636Z,99622.31
2022-11-28T23:53:38.174Z,99625.44
2022-11-28T23:56:08.241Z,99626.69
2022-11-28T23:58:36.525Z,99629.91
